Time;durP1;ratioP1;P1;durP2;ratioP2;P2;SDS_P1;SDS_P2;PMS_P1;PMS_P2;Temp;Humidity;BMP_temperature;BMP_pressure;BME280_temperature;BME280_humidity;BME280_pressure;Samples;Min_cycle;Max_cycle;Signal;HPM_P1;HPM_P2
2024/03/26 00:02:23;;;;;;;11.55;3.67;;;0.20;100.00;;;;;;4944155;28;20057;-69
2024/03/26 00:04:50;;;;;;;16.20;4.55;;;0.10;100.00;;;;;;4944529;28;20059;-69
2024/03/26 00:07:16;;;;;;;9.93;4.13;;;0.10;100.00;;;;;;4945555;28;20111;-69
2024/03/26 00:09:42;;;;;;;9.52;3.22;;;0.10;100.00;;;;;;4945172;29;20147;-69
2024/03/26 00:12:08;;;;;;;13.60;4.03;;;0.10;100.00;;;;;;4943738;28;20526;-69
2024/03/26 00:14:34;;;;;;;11.48;3.60;;;0.10;100.00;;;;;;4929227;29;20059;-69
2024/03/26 00:16:59;;;;;;;9.25;3.47;;;0.10;100.00;;;;;;4943249;28;20051;-69
2024/03/26 00:19:25;;;;;;;7.18;2.72;;;0.10;100.00;;;;;;4945907;29;20039;-69
2024/03/26 00:21:51;;;;;;;7.15;3.17;;;0.00;100.00;;;;;;4945086;28;20063;-69
2024/03/26 00:24:17;;;;;;;8.82;3.40;;;0.00;100.00;;;;;;4945741;29;20051;-72
2024/03/26 00:26:43;;;;;;;10.43;3.45;;;0.00;100.00;;;;;;4946033;29;20082;-72
2024/03/26 00:29:09;;;;;;;10.05;3.03;;;0.00;100.00;;;;;;4944042;28;20093;-72
2024/03/26 00:31:35;;;;;;;13.45;4.88;;;0.00;100.00;;;;;;4942687;28;20059;-72
2024/03/26 00:34:01;;;;;;;10.43;4.10;;;0.00;100.00;;;;;;4940738;28;20066;-69
2024/03/26 00:36:28;;;;;;;13.57;5.32;;;-0.10;100.00;;;;;;4943760;28;20051;-69
2024/03/26 00:38:54;;;;;;;22.52;6.78;;;-0.10;100.00;;;;;;4927638;29;20062;-69
2024/03/26 00:41:20;;;;;;;157.02;52.33;;;-0.10;100.00;;;;;;4926640;29;20048;-69
2024/03/26 00:43:46;;;;;;;46.10;13.15;;;-0.10;100.00;;;;;;4926910;29;20123;-70
2024/03/26 00:46:12;;;;;;;23.48;5.80;;;-0.10;100.00;;;;;;4945032;28;20668;-72
2024/03/26 00:48:38;;;;;;;11.95;3.40;;;-0.10;100.00;;;;;;4943882;28;20073;-70
2024/03/26 00:51:04;;;;;;;10.75;3.60;;;-0.10;100.00;;;;;;4944082;28;20146;-70
2024/03/26 00:53:30;;;;;;;27.08;9.93;;;-0.20;100.00;;;;;;4924618;28;20066;-70
2024/03/26 00:55:55;;;;;;;65.95;23.27;;;-0.20;100.00;;;;;;4945709;28;20235;-70
2024/03/26 00:58:21;;;;;;;36.92;12.18;;;-0.20;100.00;;;;;;4927642;28;20055;-70
2024/03/26 01:00:47;;;;;;;28.17;8.38;;;-0.20;100.00;;;;;;4943601;28;20815;-70
2024/03/26 01:03:13;;;;;;;14.82;6.45;;;-0.20;100.00;;;;;;4944526;28;20437;-70
2024/03/26 01:05:39;;;;;;;8.90;4.60;;;-0.20;100.00;;;;;;4944717;28;20058;-70
2024/03/26 01:08:05;;;;;;;10.50;3.47;;;-0.30;100.00;;;;;;4943476;28;20658;-70
2024/03/26 01:10:32;;;;;;;17.95;4.68;;;-0.30;100.00;;;;;;4943519;28;20575;-70
2024/03/26 01:12:58;;;;;;;18.40;6.30;;;-0.30;100.00;;;;;;4943615;28;20504;-70
2024/03/26 01:15:24;;;;;;;13.63;3.90;;;-0.30;100.00;;;;;;4927981;29;20066;-70
2024/03/26 01:17:50;;;;;;;10.32;3.78;;;-0.30;100.00;;;;;;4944416;28;20091;-70
2024/03/26 01:20:16;;;;;;;7.72;3.67;;;-0.40;100.00;;;;;;4944178;28;20066;-69
2024/03/26 01:22:41;;;;;;;6.55;3.03;;;-0.40;100.00;;;;;;4944247;28;20583;-70
2024/03/26 01:25:07;;;;;;;10.75;3.22;;;-0.40;100.00;;;;;;4944064;28;20091;-70
2024/03/26 01:27:34;;;;;;;7.82;2.72;;;-0.40;100.00;;;;;;4939979;28;20056;-70
2024/03/26 01:30:00;;;;;;;9.00;3.17;;;-0.50;100.00;;;;;;4937657;28;20047;-70
2024/03/26 01:32:26;;;;;;;8.43;3.28;;;-0.50;100.00;;;;;;4944314;29;20051;-70
2024/03/26 01:34:52;;;;;;;7.82;3.15;;;-0.50;100.00;;;;;;4925606;28;20075;-70
2024/03/26 01:37:19;;;;;;;6.03;2.95;;;-0.50;100.00;;;;;;4943830;28;20109;-70
2024/03/26 01:39:44;;;;;;;8.68;3.17;;;-0.60;100.00;;;;;;4944202;28;20063;-70
2024/03/26 01:42:10;;;;;;;6.75;2.70;;;-0.60;100.00;;;;;;4943987;28;20177;-69
2024/03/26 01:44:37;;;;;;;7.55;2.83;;;-0.60;100.00;;;;;;4926661;29;20055;-70
2024/03/26 01:47:04;;;;;;;10.65;3.20;;;-0.60;100.00;;;;;;4943957;28;20058;-70
2024/03/26 01:49:32;;;;;;;14.45;2.97;;;-0.60;100.00;;;;;;4928874;28;20066;-70
2024/03/26 01:51:58;;;;;;;9.93;3.28;;;-0.70;100.00;;;;;;4942971;28;20059;-70
2024/03/26 01:54:25;;;;;;;10.07;3.05;;;-0.70;100.00;;;;;;4947068;28;20047;-70
2024/03/26 01:56:53;;;;;;;9.27;2.95;;;-0.70;100.00;;;;;;4946830;28;20566;-70
2024/03/26 01:59:20;;;;;;;9.13;2.80;;;-0.70;100.00;;;;;;4947345;28;20073;-70
2024/03/26 02:01:45;;;;;;;5.10;2.67;;;-0.70;100.00;;;;;;4946807;28;20094;-70
2024/03/26 02:04:11;;;;;;;8.90;3.17;;;-0.70;100.00;;;;;;4930135;29;20535;-70
2024/03/26 02:06:37;;;;;;;7.78;2.70;;;-0.70;100.00;;;;;;4948165;28;20074;-70
2024/03/26 02:09:03;;;;;;;11.18;4.03;;;-0.70;100.00;;;;;;4932568;29;20825;-70
2024/03/26 02:11:30;;;;;;;9.88;3.22;;;-0.70;100.00;;;;;;4947119;28;20055;-70
2024/03/26 02:13:56;;;;;;;8.60;3.08;;;-0.70;100.00;;;;;;4927618;29;20063;-70
2024/03/26 02:16:22;;;;;;;10.43;3.88;;;-0.70;100.00;;;;;;4930401;29;20067;-70
2024/03/26 02:18:48;;;;;;;9.35;3.30;;;-0.70;100.00;;;;;;4932207;29;20055;-70
2024/03/26 02:21:14;;;;;;;9.30;3.35;;;-0.70;100.00;;;;;;4948351;28;20055;-70
2024/03/26 02:23:39;;;;;;;14.90;3.95;;;-0.70;100.00;;;;;;4947697;28;20058;-70
2024/03/26 02:26:05;;;;;;;13.00;3.50;;;-0.70;100.00;;;;;;4928141;29;20055;-70
2024/03/26 02:28:31;;;;;;;12.48;3.75;;;-0.70;100.00;;;;;;4925574;29;20073;-70
2024/03/26 02:30:57;;;;;;;12.38;4.13;;;-0.60;100.00;;;;;;4945411;28;20404;-70
2024/03/26 02:33:23;;;;;;;12.70;4.30;;;-0.60;100.00;;;;;;4931481;29;20057;-70
2024/03/26 02:35:49;;;;;;;10.90;3.35;;;-0.60;100.00;;;;;;4947624;28;20055;-70
2024/03/26 02:38:15;;;;;;;11.35;3.90;;;-0.60;100.00;;;;;;4945327;28;20397;-70
2024/03/26 02:40:40;;;;;;;8.43;3.80;;;-0.60;100.00;;;;;;4948209;28;20632;-70
2024/03/26 02:43:06;;;;;;;13.45;3.25;;;-0.50;100.00;;;;;;4947306;28;20158;-70
2024/03/26 02:45:32;;;;;;;9.10;4.03;;;-0.50;100.00;;;;;;4945747;28;20047;-70
2024/03/26 02:47:58;;;;;;;9.82;4.15;;;-0.50;100.00;;;;;;4947304;29;20059;-70
2024/03/26 02:50:24;;;;;;;18.15;4.78;;;-0.50;100.00;;;;;;4947337;29;20106;-70
2024/03/26 02:52:49;;;;;;;12.77;4.43;;;-0.50;100.00;;;;;;4947584;28;20059;-70
2024/03/26 02:55:15;;;;;;;9.40;3.65;;;-0.40;100.00;;;;;;4930919;29;20057;-70
2024/03/26 02:57:41;;;;;;;10.82;4.28;;;-0.40;100.00;;;;;;4946541;28;20428;-70
2024/03/26 03:00:08;;;;;;;15.90;3.92;;;-0.40;100.00;;;;;;4948150;29;20055;-70
2024/03/26 03:02:33;;;;;;;12.63;4.15;;;-0.40;100.00;;;;;;4946230;28;20468;-70
2024/03/26 03:04:59;;;;;;;12.63;3.88;;;-0.40;100.00;;;;;;4930524;29;20051;-70
2024/03/26 03:07:25;;;;;;;23.15;5.18;;;-0.40;100.00;;;;;;4929713;28;20062;-71
2024/03/26 03:09:51;;;;;;;16.30;4.05;;;-0.40;100.00;;;;;;4946784;28;20063;-70
2024/03/26 03:12:17;;;;;;;16.08;4.57;;;-0.30;100.00;;;;;;4946521;28;20118;-70
2024/03/26 03:14:43;;;;;;;19.63;4.65;;;-0.30;100.00;;;;;;4946970;28;20086;-70
2024/03/26 03:17:09;;;;;;;22.70;5.35;;;-0.30;100.00;;;;;;4946831;28;20059;-70
2024/03/26 03:19:34;;;;;;;13.55;4.70;;;-0.30;100.00;;;;;;4929892;28;20066;-71
2024/03/26 03:22:00;;;;;;;15.88;4.50;;;-0.30;100.00;;;;;;4946524;28;20079;-70
2024/03/26 03:24:26;;;;;;;17.60;4.75;;;-0.30;100.00;;;;;;4929851;28;20047;-71
2024/03/26 03:26:52;;;;;;;17.77;5.45;;;-0.30;100.00;;;;;;4943324;28;20723;-70
2024/03/26 03:29:18;;;;;;;13.45;4.47;;;-0.30;100.00;;;;;;4929960;29;20070;-70
2024/03/26 03:31:44;;;;;;;12.23;5.10;;;-0.20;100.00;;;;;;4945073;28;20051;-70
2024/03/26 03:34:10;;;;;;;13.15;4.80;;;-0.20;100.00;;;;;;4946345;28;20142;-72
2024/03/26 03:36:36;;;;;;;15.13;4.75;;;-0.20;100.00;;;;;;4940514;28;20055;-72
2024/03/26 03:39:04;;;;;;;19.92;5.93;;;-0.20;100.00;;;;;;4946496;28;20083;-71
2024/03/26 03:41:30;;;;;;;13.20;4.50;;;-0.20;100.00;;;;;;4927564;28;20044;-71
2024/03/26 03:43:56;;;;;;;19.60;5.10;;;-0.20;100.00;;;;;;4946205;29;20047;-72
2024/03/26 03:46:22;;;;;;;16.42;3.95;;;-0.20;100.00;;;;;;4929984;28;20126;-72
2024/03/26 03:48:49;;;;;;;13.45;5.22;;;-0.30;100.00;;;;;;4945972;28;20138;-72
2024/03/26 03:51:14;;;;;;;11.10;4.80;;;-0.30;100.00;;;;;;4946221;29;20641;-72
2024/03/26 03:53:40;;;;;;;15.75;5.00;;;-0.30;100.00;;;;;;4929761;29;20072;-72
2024/03/26 03:56:06;;;;;;;19.50;5.45;;;-0.30;100.00;;;;;;4946161;28;20051;-72
2024/03/26 03:58:32;;;;;;;19.50;4.82;;;-0.30;100.00;;;;;;4944926;28;20055;-71
2024/03/26 04:00:58;;;;;;;21.05;5.90;;;-0.30;100.00;;;;;;4942986;28;20122;-72
2024/03/26 04:03:24;;;;;;;20.92;5.65;;;-0.30;100.00;;;;;;4944942;28;20062;-72
2024/03/26 04:05:50;;;;;;;13.80;5.28;;;-0.30;100.00;;;;;;4945408;28;20055;-72
2024/03/26 04:08:16;;;;;;;15.38;5.55;;;-0.30;100.00;;;;;;4928611;29;20067;-72
2024/03/26 04:10:43;;;;;;;14.40;5.43;;;-0.30;100.00;;;;;;4945729;28;20051;-72
2024/03/26 04:13:09;;;;;;;25.33;6.32;;;-0.40;100.00;;;;;;4944894;28;20606;-72
2024/03/26 04:15:39;;;;;;;25.10;5.30;;;-0.40;100.00;;;;;;4945055;28;20059;-72
2024/03/26 04:18:05;;;;;;;35.80;7.15;;;-0.40;100.00;;;;;;4926175;28;20497;-72
2024/03/26 04:20:32;;;;;;;18.13;5.63;;;-0.30;100.00;;;;;;4945987;28;20529;-71
2024/03/26 04:22:58;;;;;;;19.65;5.20;;;-0.30;100.00;;;;;;4929492;29;20492;-72
2024/03/26 04:25:24;;;;;;;14.38;5.80;;;-0.30;100.00;;;;;;4946065;28;20058;-72
2024/03/26 04:27:51;;;;;;;16.15;5.53;;;-0.30;100.00;;;;;;4946120;28;20058;-72
2024/03/26 04:30:17;;;;;;;18.67;5.13;;;-0.30;100.00;;;;;;4945261;28;20102;-71
2024/03/26 04:32:43;;;;;;;17.05;5.35;;;-0.30;100.00;;;;;;4942318;28;20086;-71
2024/03/26 04:35:09;;;;;;;15.57;5.63;;;-0.40;100.00;;;;;;4928828;29;20055;-72
2024/03/26 04:37:37;;;;;;;26.42;5.55;;;-0.40;100.00;;;;;;4945954;29;20054;-72
2024/03/26 04:40:07;;;;;;;14.98;5.07;;;-0.40;100.00;;;;;;4943431;28;20051;-71
2024/03/26 04:42:33;;;;;;;19.30;5.93;;;-0.40;100.00;;;;;;4923768;28;20062;-72
2024/03/26 04:44:58;;;;;;;19.80;5.45;;;-0.40;100.00;;;;;;4945324;28;20055;-72
2024/03/26 04:47:25;;;;;;;14.20;4.95;;;-0.30;100.00;;;;;;4927170;28;20059;-71
2024/03/26 04:49:51;;;;;;;12.95;5.18;;;-0.30;100.00;;;;;;4924093;29;20078;-71
2024/03/26 04:52:17;;;;;;;11.40;4.53;;;-0.30;100.00;;;;;;4944766;28;20059;-71
2024/03/26 04:54:43;;;;;;;18.92;5.50;;;-0.30;100.00;;;;;;4945683;28;20138;-71
2024/03/26 04:57:08;;;;;;;25.30;5.47;;;-0.20;100.00;;;;;;4945358;28;20484;-71
2024/03/26 04:59:34;;;;;;;14.27;5.43;;;-0.30;100.00;;;;;;4930813;29;20067;-72
2024/03/26 05:02:00;;;;;;;14.93;4.88;;;-0.30;100.00;;;;;;4944791;29;20061;-71
2024/03/26 05:04:26;;;;;;;14.02;4.70;;;-0.30;100.00;;;;;;4943902;28;20047;-71
2024/03/26 05:06:52;;;;;;;26.90;5.63;;;-0.30;100.00;;;;;;4944615;28;20138;-71
2024/03/26 05:09:18;;;;;;;17.90;5.75;;;-0.30;100.00;;;;;;4943437;28;20468;-72
2024/03/26 05:11:44;;;;;;;18.27;5.47;;;-0.20;100.00;;;;;;4924758;29;20055;-72
2024/03/26 05:14:10;;;;;;;23.48;5.75;;;-0.20;100.00;;;;;;4927547;28;20054;-71
2024/03/26 05:16:36;;;;;;;17.75;5.93;;;-0.20;100.00;;;;;;4928438;29;20051;-72
2024/03/26 05:19:02;;;;;;;17.23;5.75;;;-0.10;100.00;;;;;;4939514;28;20447;-72
2024/03/26 05:21:28;;;;;;;28.65;4.90;;;0.00;100.00;;;;;;4944494;28;20047;-72
2024/03/26 05:23:54;;;;;;;14.45;5.80;;;0.00;100.00;;;;;;4928808;29;20495;-71
2024/03/26 05:26:20;;;;;;;19.85;4.88;;;0.00;100.00;;;;;;4926151;29;20058;-72
2024/03/26 05:28:46;;;;;;;12.93;4.65;;;0.00;100.00;;;;;;4944217;28;20051;-72
2024/03/26 05:31:20;;;;;;;15.52;4.78;;;0.10;100.00;;;;;;4943724;28;20054;-72
2024/03/26 05:33:49;;;;;;;19.63;5.22;;;0.10;100.00;;;;;;4927312;29;20062;-72
2024/03/26 05:36:15;;;;;;;11.98;4.80;;;0.20;100.00;;;;;;4942209;28;20098;-73
2024/03/26 05:38:41;;;;;;;17.80;5.28;;;0.20;100.00;;;;;;4940655;28;20109;-80
2024/03/26 05:41:07;;;;;;;18.88;6.13;;;0.30;100.00;;;;;;4942354;28;20154;-73
2024/03/26 05:43:34;;;;;;;19.35;4.88;;;0.30;100.00;;;;;;4937949;28;20051;-74
2024/03/26 05:46:01;;;;;;;29.33;7.32;;;0.30;100.00;;;;;;4938931;28;20046;-73
2024/03/26 05:48:26;;;;;;;23.85;6.03;;;0.30;100.00;;;;;;4921754;29;20508;-72
2024/03/26 05:50:53;;;;;;;15.55;5.32;;;0.40;100.00;;;;;;4941590;28;20055;-71
2024/03/26 05:53:19;;;;;;;21.25;6.57;;;0.40;100.00;;;;;;4924993;29;20071;-73
2024/03/26 05:55:45;;;;;;;15.80;4.82;;;0.50;100.00;;;;;;4938117;28;20058;-74
2024/03/26 05:58:11;;;;;;;14.82;5.70;;;0.50;100.00;;;;;;4938151;28;20528;-72
2024/03/26 06:00:37;;;;;;;24.98;6.57;;;0.50;100.00;;;;;;4937952;28;20047;-74
2024/03/26 06:03:04;;;;;;;25.55;6.35;;;0.60;100.00;;;;;;4936966;28;20083;-74
2024/03/26 06:05:29;;;;;;;14.98;6.40;;;0.70;100.00;;;;;;4939525;28;20052;-75
2024/03/26 06:07:55;;;;;;;18.17;6.50;;;0.80;100.00;;;;;;4941254;28;20125;-75
2024/03/26 06:10:22;;;;;;;28.10;6.53;;;0.90;100.00;;;;;;4941799;28;20070;-75
2024/03/26 06:12:48;;;;;;;22.77;7.63;;;1.00;100.00;;;;;;4944359;28;20092;-75
2024/03/26 06:15:14;;;;;;;33.25;8.35;;;1.10;100.00;;;;;;4943721;28;20791;-75
2024/03/26 06:17:40;;;;;;;32.33;7.80;;;1.30;100.00;;;;;;4929207;29;20086;-75
2024/03/26 06:20:07;;;;;;;22.83;7.25;;;1.40;100.00;;;;;;4944372;28;20098;-75
2024/03/26 06:22:33;;;;;;;22.60;6.97;;;1.50;100.00;;;;;;4941871;28;20047;-75
2024/03/26 06:24:59;;;;;;;28.88;6.03;;;1.60;100.00;;;;;;4942437;28;20103;-75
2024/03/26 06:27:26;;;;;;;20.38;6.43;;;1.80;100.00;;;;;;4938984;28;20098;-75
2024/03/26 06:29:53;;;;;;;25.65;7.15;;;1.90;100.00;;;;;;4941441;28;20051;-75
2024/03/26 06:32:19;;;;;;;16.60;5.63;;;2.20;100.00;;;;;;4923806;29;20052;-75
2024/03/26 06:34:45;;;;;;;26.13;6.78;;;2.60;100.00;;;;;;4923373;29;20059;-75
2024/03/26 06:37:12;;;;;;;19.15;7.05;;;3.10;100.00;;;;;;4933594;28;20064;-74
2024/03/26 06:39:37;;;;;;;17.95;7.32;;;3.60;100.00;;;;;;4946055;28;20795;-74
2024/03/26 06:42:04;;;;;;;25.50;7.82;;;3.90;100.00;;;;;;4943646;29;20555;-74
2024/03/26 06:44:30;;;;;;;23.83;7.88;;;4.30;100.00;;;;;;4946506;28;20055;-76
2024/03/26 06:46:55;;;;;;;27.20;8.60;;;4.40;100.00;;;;;;4943123;28;20855;-72
2024/03/26 06:49:22;;;;;;;21.25;6.47;;;4.50;100.00;;;;;;4921727;28;20117;-73
2024/03/26 06:51:50;;;;;;;23.30;6.93;;;4.50;100.00;;;;;;4941057;28;20059;-73
2024/03/26 06:54:17;;;;;;;19.55;7.18;;;4.60;100.00;;;;;;4923319;28;20066;-71
2024/03/26 06:56:43;;;;;;;19.75;7.10;;;4.60;100.00;;;;;;4938321;28;20074;-71
2024/03/26 06:59:09;;;;;;;29.52;7.88;;;4.70;100.00;;;;;;4939932;28;20130;-73
2024/03/26 07:01:35;;;;;;;24.92;6.68;;;4.80;100.00;;;;;;4944973;28;20090;-78
2024/03/26 07:04:01;;;;;;;23.25;7.35;;;5.10;100.00;;;;;;4943123;28;20043;-75
2024/03/26 07:06:29;;;;;;;26.40;6.93;;;5.10;100.00;;;;;;4924416;28;20051;-77
2024/03/26 07:08:55;;;;;;;25.38;7.13;;;5.20;100.00;;;;;;4939775;28;20043;-74
2024/03/26 07:11:21;;;;;;;24.15;7.35;;;5.30;100.00;;;;;;4926425;28;20676;-75
2024/03/26 07:13:50;;;;;;;25.02;7.35;;;5.50;100.00;;;;;;4938951;28;20153;-75
2024/03/26 07:16:17;;;;;;;26.40;7.63;;;5.60;100.00;;;;;;4939153;28;20058;-74
2024/03/26 07:18:43;;;;;;;17.38;6.53;;;5.80;100.00;;;;;;4922549;28;21045;-71
2024/03/26 07:21:09;;;;;;;15.50;6.70;;;6.00;100.00;;;;;;4938564;28;20058;-76
2024/03/26 07:23:34;;;;;;;27.75;6.57;;;6.10;100.00;;;;;;4939329;28;20183;-74
2024/03/26 07:26:00;;;;;;;14.73;6.20;;;6.30;100.00;;;;;;4924721;28;20058;-74
2024/03/26 07:28:26;;;;;;;22.75;6.82;;;6.60;100.00;;;;;;4921779;29;20055;-71
2024/03/26 07:30:52;;;;;;;16.85;6.47;;;6.90;100.00;;;;;;4939113;28;20051;-70
2024/03/26 07:33:18;;;;;;;19.23;6.28;;;7.20;100.00;;;;;;4923585;28;20063;-70
2024/03/26 07:35:44;;;;;;;20.25;6.57;;;7.50;100.00;;;;;;4958406;28;20419;-71
2024/03/26 07:38:10;;;;;;;18.33;5.78;;;8.00;100.00;;;;;;4940058;28;20051;-71
2024/03/26 07:40:36;;;;;;;13.20;6.03;;;8.60;100.00;;;;;;4944576;28;20051;-72
2024/03/26 07:43:03;;;;;;;15.60;5.95;;;9.10;100.00;;;;;;4940244;28;20055;-71
2024/03/26 07:45:30;;;;;;;16.52;5.50;;;9.50;100.00;;;;;;4928702;28;20062;-71
2024/03/26 07:47:56;;;;;;;10.82;5.10;;;10.00;100.00;;;;;;4947352;28;20066;-77
2024/03/26 07:50:22;;;;;;;11.48;5.03;;;10.70;100.00;;;;;;4942041;28;20090;-75
2024/03/26 07:52:51;;;;;;;10.27;4.72;;;11.20;100.00;;;;;;4943248;28;20420;-74
2024/03/26 07:55:17;;;;;;;8.63;4.70;;;11.20;100.00;;;;;;4942108;28;21479;-73
2024/03/26 07:57:43;;;;;;;18.92;4.82;;;11.10;100.00;;;;;;4943004;29;20082;-72
2024/03/26 08:00:11;;;;;;;12.55;4.85;;;11.00;100.00;;;;;;4943730;28;20817;-73
2024/03/26 08:02:37;;;;;;;14.23;4.80;;;11.20;100.00;;;;;;4942595;28;20585;-73
2024/03/26 08:05:03;;;;;;;25.73;5.00;;;11.20;100.00;;;;;;4945195;29;20404;-73
2024/03/26 08:07:29;;;;;;;13.88;5.00;;;11.20;100.00;;;;;;4943842;29;20055;-73
2024/03/26 08:09:56;;;;;;;13.07;4.55;;;11.20;100.00;;;;;;4944046;29;20102;-73
2024/03/26 08:12:21;;;;;;;7.57;4.13;;;11.50;100.00;;;;;;4943407;28;20062;-73
2024/03/26 08:14:47;;;;;;;12.48;4.30;;;11.60;100.00;;;;;;4943225;29;20054;-74
2024/03/26 08:17:13;;;;;;;13.60;4.80;;;11.70;100.00;;;;;;4944213;28;20059;-73
2024/03/26 08:19:40;;;;;;;10.00;3.85;;;11.60;100.00;;;;;;4943859;28;20059;-73
2024/03/26 08:22:06;;;;;;;11.45;4.40;;;11.40;100.00;;;;;;4945055;28;20074;-73
2024/03/26 08:24:33;;;;;;;8.10;4.32;;;11.30;100.00;;;;;;4929395;29;20496;-74
2024/03/26 08:26:59;;;;;;;11.77;4.75;;;11.30;100.00;;;;;;4945488;28;20396;-73
2024/03/26 08:29:25;;;;;;;8.02;4.75;;;11.40;100.00;;;;;;4945591;29;20128;-73
2024/03/26 08:31:51;;;;;;;11.52;4.93;;;11.20;100.00;;;;;;4943562;28;20819;-73
2024/03/26 08:34:17;;;;;;;6.63;3.63;;;11.30;100.00;;;;;;4945703;29;20154;-74
2024/03/26 08:36:47;;;;;;;9.10;4.40;;;11.50;100.00;;;;;;4928870;29;20139;-74
2024/03/26 08:39:13;;;;;;;11.27;4.40;;;11.60;100.00;;;;;;4944871;29;20047;-73
2024/03/26 08:41:39;;;;;;;8.20;4.05;;;11.70;100.00;;;;;;4945716;29;20501;-73
2024/03/26 08:44:08;;;;;;;9.75;4.22;;;11.80;100.00;;;;;;4946436;28;20043;-73
2024/03/26 08:46:34;;;;;;;8.10;4.13;;;12.10;100.00;;;;;;4945354;29;20695;-74
2024/03/26 08:49:00;;;;;;;8.57;3.63;;;12.10;100.00;;;;;;4945032;28;20176;-74
2024/03/26 08:51:28;;;;;;;8.20;4.18;;;12.10;100.00;;;;;;4927766;29;20051;-73
2024/03/26 08:53:58;;;;;;;12.90;3.83;;;12.00;100.00;;;;;;4944230;28;20063;-73
2024/03/26 08:56:25;;;;;;;7.47;4.45;;;11.80;100.00;;;;;;4944302;28;20054;-73
2024/03/26 08:58:51;;;;;;;10.85;3.88;;;12.00;100.00;;;;;;4943256;29;20485;-74
2024/03/26 09:01:17;;;;;;;7.60;3.60;;;12.30;100.00;;;;;;4943890;28;20664;-74
2024/03/26 09:03:43;;;;;;;7.68;3.70;;;12.40;100.00;;;;;;4924372;29;20058;-72
2024/03/26 09:06:09;;;;;;;15.70;3.90;;;12.60;100.00;;;;;;4944041;29;20058;-74
2024/03/26 09:08:35;;;;;;;8.27;3.63;;;12.30;100.00;;;;;;4944763;29;20066;-74
2024/03/26 09:11:01;;;;;;;8.82;3.35;;;12.40;100.00;;;;;;4945893;29;20055;-74
2024/03/26 09:13:27;;;;;;;6.93;4.05;;;12.60;100.00;;;;;;4945081;29;20055;-74
2024/03/26 09:15:53;;;;;;;9.70;3.85;;;12.90;100.00;;;;;;4945927;29;20059;-72
2024/03/26 09:18:18;;;;;;;7.38;3.53;;;13.10;100.00;;;;;;4945098;28;20129;-72
2024/03/26 09:20:44;;;;;;;7.55;3.50;;;13.30;100.00;;;;;;4945627;28;20055;-72
2024/03/26 09:23:10;;;;;;;10.40;3.80;;;13.50;100.00;;;;;;4944835;28;20047;-72
2024/03/26 09:25:36;;;;;;;7.93;3.67;;;13.50;100.00;;;;;;4927194;29;20732;-70
2024/03/26 09:28:02;;;;;;;7.93;3.28;;;13.60;100.00;;;;;;4943325;29;20065;-71
2024/03/26 09:30:28;;;;;;;7.22;3.50;;;13.70;100.00;;;;;;4942655;28;20731;-71
2024/03/26 09:32:54;;;;;;;7.20;3.35;;;13.80;100.00;;;;;;4924721;28;20066;-72
2024/03/26 09:35:20;;;;;;;5.35;3.28;;;13.80;100.00;;;;;;4944862;29;20369;-73
2024/03/26 09:37:46;;;;;;;9.77;3.15;;;14.00;100.00;;;;;;4927461;29;20056;-73
2024/03/26 09:40:13;;;;;;;5.50;3.05;;;14.30;100.00;;;;;;4945254;29;20048;-73
2024/03/26 09:42:42;;;;;;;6.25;3.50;;;14.60;100.00;;;;;;4943142;28;20051;-72
2024/03/26 09:45:12;;;;;;;5.40;3.30;;;14.80;100.00;;;;;;4941854;29;20043;-72
2024/03/26 09:47:42;;;;;;;6.18;3.42;;;14.30;83.60;;;;;;4923639;29;20089;-72
2024/03/26 09:50:10;;;;;;;5.60;3.20;;;14.50;94.10;;;;;;4944548;28;20047;-73
2024/03/26 09:52:38;;;;;;;8.85;3.20;;;15.10;86.00;;;;;;4942411;28;20079;-73
2024/03/26 09:55:07;;;;;;;5.38;3.13;;;15.40;80.90;;;;;;4943047;28;20059;-73
2024/03/26 09:57:34;;;;;;;3.95;2.55;;;15.70;63.10;;;;;;4925843;29;20062;-72
2024/03/26 09:59:59;;;;;;;7.72;3.03;;;15.90;58.20;;;;;;4927100;29;20046;-72
2024/03/26 10:02:26;;;;;;;4.85;3.13;;;16.00;53.00;;;;;;4942883;28;20052;-72
2024/03/26 10:04:51;;;;;;;7.97;3.00;;;16.10;52.80;;;;;;4943193;28;20062;-72
2024/03/26 10:07:18;;;;;;;6.18;3.08;;;16.20;54.10;;;;;;4928552;29;20055;-72
2024/03/26 10:09:44;;;;;;;5.68;3.50;;;16.60;50.60;;;;;;4928848;29;20059;-72
2024/03/26 10:12:13;;;;;;;6.70;3.13;;;16.60;53.50;;;;;;4943967;28;20063;-72
2024/03/26 10:14:40;;;;;;;9.57;3.45;;;16.70;53.20;;;;;;4947598;29;20059;-72
2024/03/26 10:17:07;;;;;;;9.13;3.55;;;16.70;52.30;;;;;;4929143;29;20055;-73
2024/03/26 10:19:33;;;;;;;3.97;3.03;;;16.90;51.70;;;;;;4930590;29;20050;-71
2024/03/26 10:21:59;;;;;;;7.95;3.70;;;16.90;52.90;;;;;;4946194;28;20134;-71
2024/03/26 10:24:25;;;;;;;5.32;3.20;;;16.90;51.80;;;;;;4944031;29;20055;-71
2024/03/26 10:26:53;;;;;;;5.25;3.25;;;17.10;55.70;;;;;;4931138;29;20145;-71
2024/03/26 10:29:19;;;;;;;7.32;3.50;;;17.60;50.00;;;;;;4944544;29;20113;-71
2024/03/26 10:31:48;;;;;;;5.38;3.45;;;17.50;49.80;;;;;;4931909;29;20054;-72
2024/03/26 10:34:17;;;;;;;4.78;2.95;;;17.60;50.20;;;;;;4931528;29;20055;-72
2024/03/26 10:36:43;;;;;;;6.05;3.13;;;17.90;49.30;;;;;;4930436;29;20527;-72
2024/03/26 10:39:14;;;;;;;5.75;3.22;;;18.00;51.20;;;;;;4931554;29;20464;-72
2024/03/26 10:41:41;;;;;;;6.93;3.22;;;18.20;47.80;;;;;;4948101;29;20444;-72
2024/03/26 10:44:08;;;;;;;5.88;2.78;;;17.10;51.10;;;;;;4931227;29;20421;-72
2024/03/26 10:46:35;;;;;;;8.15;2.97;;;17.50;51.10;;;;;;4947044;28;20063;-73
2024/03/26 10:49:02;;;;;;;7.25;2.90;;;17.20;46.30;;;;;;4931480;28;20047;-72
2024/03/26 10:51:29;;;;;;;6.20;2.88;;;17.20;49.10;;;;;;4932797;29;20055;-73
2024/03/26 10:54:01;;;;;;;6.05;3.00;;;17.40;48.10;;;;;;4946577;28;20055;-72
2024/03/26 10:56:32;;;;;;;5.50;2.63;;;17.60;49.60;;;;;;4945989;28;20054;-72
2024/03/26 10:58:58;;;;;;;5.25;2.70;;;17.80;45.70;;;;;;4947066;28;20066;-72
2024/03/26 11:01:26;;;;;;;4.20;2.60;;;17.40;49.30;;;;;;4945062;28;20472;-72
2024/03/26 11:03:53;;;;;;;5.68;2.30;;;17.10;47.50;;;;;;4931624;29;20067;-71
2024/03/26 11:06:20;;;;;;;8.25;2.63;;;16.90;49.20;;;;;;4944196;29;20820;-72
2024/03/26 11:08:46;;;;;;;6.22;2.83;;;16.60;50.20;;;;;;4945333;28;20055;-72
2024/03/26 11:11:18;;;;;;;4.57;2.22;;;16.70;48.80;;;;;;4928210;29;20145;-72
2024/03/26 11:13:44;;;;;;;5.03;2.50;;;16.90;47.50;;;;;;4927195;29;20664;-72
2024/03/26 11:16:33;;;;;;;3.97;2.28;;;17.00;49.90;;;;;;4946442;28;20055;-72
2024/03/26 11:19:15;;;;;;;7.20;2.17;;;17.80;48.40;;;;;;4942616;28;20051;-73
2024/03/26 11:21:42;;;;;;;5.32;2.28;;;18.10;45.60;;;;;;4928384;29;20047;-72
2024/03/26 11:24:18;;;;;;;3.20;2.10;;;17.90;48.60;;;;;;4941208;28;20515;-73
2024/03/26 11:26:44;;;;;;;4.80;2.35;;;18.10;46.30;;;;;;4928732;29;20779;-75
2024/03/26 11:29:12;;;;;;;4.63;2.05;;;18.30;47.90;;;;;;4943285;28;20110;-73
2024/03/26 11:31:39;;;;;;;11.25;2.72;;;18.90;44.80;;;;;;4943955;28;20051;-74
2024/03/26 11:34:06;;;;;;;3.15;2.17;;;19.10;43.70;;;;;;4943739;28;20051;-73
2024/03/26 11:36:34;;;;;;;3.00;1.90;;;19.40;42.90;;;;;;4943220;28;20055;-73
2024/03/26 11:39:00;;;;;;;4.43;2.13;;;19.50;43.70;;;;;;4942724;28;20062;-73
2024/03/26 11:41:27;;;;;;;3.35;1.98;;;19.90;44.20;;;;;;4927540;28;20055;-74
2024/03/26 11:43:53;;;;;;;4.20;1.80;;;20.00;45.30;;;;;;4942972;28;20765;-74
2024/03/26 11:46:19;;;;;;;4.53;1.65;;;20.30;42.40;;;;;;4944312;28;20054;-74
2024/03/26 11:48:58;;;;;;;3.38;2.10;;;19.70;42.40;;;;;;4929421;29;20051;-74
2024/03/26 11:51:24;;;;;;;3.83;2.03;;;20.20;42.90;;;;;;4939962;28;20058;-74
2024/03/26 11:53:50;;;;;;;5.60;1.60;;;20.80;41.80;;;;;;4940949;28;20062;-73
2024/03/26 11:56:17;;;;;;;3.90;1.65;;;20.70;38.90;;;;;;4942818;28;20102;-73
2024/03/26 11:58:47;;;;;;;13.40;2.97;;;19.10;41.20;;;;;;4942521;28;20063;-73
2024/03/26 12:01:13;;;;;;;4.40;1.65;;;18.30;44.60;;;;;;4944234;28;20047;-72
2024/03/26 12:03:56;;;;;;;6.78;1.98;;;19.00;43.40;;;;;;4943263;28;20055;-74
2024/03/26 12:06:26;;;;;;;3.47;1.67;;;19.20;41.50;;;;;;4945384;28;20055;-73
2024/03/26 12:08:59;;;;;;;4.15;1.90;;;19.00;43.00;;;;;;4943349;28;20062;-71
2024/03/26 12:11:26;;;;;;;4.53;1.90;;;18.90;43.30;;;;;;4940138;28;20635;-70
2024/03/26 12:13:52;;;;;;;4.65;2.15;;;19.10;43.00;;;;;;4942733;28;20063;-69
2024/03/26 12:16:20;;;;;;;4.90;2.10;;;18.80;45.00;;;;;;4925274;29;20059;-69
2024/03/26 12:18:46;;;;;;;3.47;1.65;;;18.70;43.10;;;;;;4943123;28;20058;-68
2024/03/26 12:21:12;;;;;;;4.43;1.83;;;18.90;43.90;;;;;;4942847;29;20070;-68
2024/03/26 12:23:38;;;;;;;5.10;2.10;;;18.60;43.00;;;;;;4944831;28;20152;-70
2024/03/26 12:26:04;;;;;;;4.78;1.77;;;18.00;42.20;;;;;;4918873;29;20063;-69
2024/03/26 12:28:32;;;;;;;3.55;1.90;;;17.80;43.30;;;;;;4922819;28;20062;-69
2024/03/26 12:30:58;;;;;;;4.07;1.67;;;17.50;42.10;;;;;;4944665;28;20047;-70
2024/03/26 12:33:23;;;;;;;3.15;1.75;;;17.50;43.10;;;;;;4941365;28;20059;-68